createdAt,value
2019-04-30T00:00:41.636Z,3.70
2019-04-30T00:01:41.569Z,4.50
2019-04-30T00:02:41.557Z,3.80
2019-04-30T00:03:41.572Z,3.90
2019-04-30T00:04:41.606Z,4.00
2019-04-30T00:05:41.586Z,4.00
2019-04-30T00:06:41.624Z,4.00
2019-04-30T00:07:41.585Z,4.00
2019-04-30T00:08:41.596Z,3.90
2019-04-30T00:09:41.597Z,4.10
2019-04-30T00:10:41.594Z,4.00
2019-04-30T00:11:41.603Z,3.90
2019-04-30T00:12:41.628Z,4.00
2019-04-30T00:13:41.624Z,4.00
2019-04-30T00:14:41.635Z,3.80
2019-04-30T00:15:41.663Z,3.70
2019-04-30T00:16:41.693Z,4.00
2019-04-30T00:17:41.647Z,3.90
2019-04-30T00:18:55.405Z,4.00
2019-04-30T00:19:41.660Z,3.80
2019-04-30T00:20:41.651Z,3.90
2019-04-30T00:21:41.658Z,3.90
2019-04-30T00:22:47.020Z,3.90
2019-04-30T00:23:41.673Z,3.70
2019-04-30T00:24:46.830Z,3.90
2019-04-30T00:25:41.686Z,3.50
2019-04-30T00:26:45.060Z,4.30
2019-04-30T00:27:41.747Z,4.20
2019-04-30T00:28:46.343Z,3.90
2019-04-30T00:29:41.691Z,3.90
2019-04-30T00:30:43.970Z,4.20
2019-04-30T00:31:41.695Z,3.70
2019-04-30T00:32:43.642Z,4.20
2019-04-30T00:33:41.702Z,3.70
2019-04-30T00:34:41.711Z,4.20
2019-04-30T00:35:41.716Z,4.00
2019-04-30T00:36:41.729Z,3.60
2019-04-30T00:37:41.735Z,3.90
2019-04-30T00:38:41.738Z,3.70
2019-04-30T00:39:44.299Z,3.80
2019-04-30T00:40:41.732Z,3.90
2019-04-30T00:41:45.966Z,3.90
2019-04-30T00:42:41.742Z,4.00
2019-04-30T00:43:46.593Z,3.80
2019-04-30T00:44:41.739Z,3.60
2019-04-30T00:45:44.898Z,4.00
2019-04-30T00:46:41.772Z,3.90
2019-04-30T00:47:44.465Z,4.00
2019-04-30T00:48:41.762Z,4.20
2019-04-30T00:49:41.853Z,4.10
2019-04-30T00:50:41.825Z,4.00
2019-04-30T00:51:41.779Z,4.10
2019-04-30T00:52:41.787Z,3.60
2019-04-30T00:53:43.828Z,4.20
2019-04-30T00:54:41.861Z,4.10
2019-04-30T00:55:46.809Z,4.10
2019-04-30T00:56:41.849Z,4.30
2019-04-30T00:57:47.318Z,4.50
2019-04-30T00:58:41.820Z,4.20
2019-04-30T00:59:44.645Z,4.00
2019-04-30T01:00:41.892Z,3.80
2019-04-30T01:01:43.721Z,4.10
2019-04-30T01:02:41.840Z,3.90
2019-04-30T01:03:46.373Z,3.80
2019-04-30T01:04:41.854Z,4.00
2019-04-30T01:05:44.502Z,4.20
2019-04-30T01:06:41.887Z,4.30
2019-04-30T01:07:48.788Z,4.30
2019-04-30T01:08:41.853Z,3.90
2019-04-30T01:09:46.561Z,3.90
2019-04-30T01:10:41.858Z,3.60
2019-04-30T01:11:46.619Z,4.00
2019-04-30T01:12:47.078Z,4.10
2019-04-30T01:13:50.124Z,4.10
2019-04-30T01:14:41.877Z,4.10
2019-04-30T01:15:44.120Z,4.50
2019-04-30T01:16:41.952Z,3.80
2019-04-30T01:17:45.340Z,4.00
2019-04-30T01:18:41.915Z,3.90
2019-04-30T01:19:45.822Z,4.40
2019-04-30T01:20:41.915Z,3.90
2019-04-30T01:21:47.147Z,4.40
2019-04-30T01:22:41.955Z,3.80
2019-04-30T01:23:51.727Z,3.90
2019-04-30T01:24:41.926Z,4.20
2019-04-30T01:25:43.104Z,3.90
2019-04-30T01:26:41.916Z,4.00
2019-04-30T01:27:45.827Z,3.90
2019-04-30T01:28:41.930Z,3.90
2019-04-30T01:29:44.376Z,4.00
2019-04-30T01:30:41.970Z,4.00
2019-04-30T01:31:41.970Z,4.30
2019-04-30T01:32:41.997Z,4.10
2019-04-30T01:33:41.964Z,3.80
2019-04-30T01:34:44.247Z,4.10
2019-04-30T01:35:41.977Z,4.40
2019-04-30T01:36:43.411Z,4.30
2019-04-30T01:37:42.003Z,4.00
2019-04-30T01:38:44.880Z,4.50
2019-04-30T01:39:41.979Z,4.10
2019-04-30T01:40:42.921Z,3.60
2019-04-30T01:41:42.007Z,4.20
2019-04-30T01:42:48.001Z,4.00
2019-04-30T01:43:42.013Z,4.10
2019-04-30T01:44:43.469Z,4.20
2019-04-30T01:45:42.043Z,4.00
2019-04-30T01:46:43.199Z,4.00
2019-04-30T01:47:42.007Z,4.20
2019-04-30T01:48:43.531Z,3.90
2019-04-30T01:49:44.769Z,3.80
2019-04-30T01:50:42.249Z,3.90
2019-04-30T01:51:42.032Z,4.10
2019-04-30T01:52:42.053Z,3.90
2019-04-30T01:53:43.660Z,3.80
2019-04-30T01:54:42.063Z,4.20
2019-04-30T01:55:42.041Z,3.90
2019-04-30T01:56:42.056Z,4.00
2019-04-30T01:57:42.089Z,4.20
2019-04-30T01:58:42.067Z,4.10
2019-04-30T01:59:42.071Z,4.20
2019-04-30T02:00:42.057Z,4.10
2019-04-30T02:01:42.068Z,4.00
2019-04-30T02:02:42.066Z,3.80
2019-04-30T02:03:42.119Z,4.20
2019-04-30T02:04:42.099Z,3.70
2019-04-30T02:05:42.094Z,3.90
2019-04-30T02:06:42.091Z,4.10
2019-04-30T02:07:42.100Z,4.00
2019-04-30T02:08:42.111Z,4.20
2019-04-30T02:09:42.138Z,4.10
2019-04-30T02:10:42.120Z,3.70
2019-04-30T02:11:42.124Z,4.10
2019-04-30T02:12:42.107Z,3.80
2019-04-30T02:13:42.121Z,4.00
2019-04-30T02:14:42.117Z,3.70
2019-04-30T02:15:42.159Z,4.10
2019-04-30T02:16:42.209Z,4.20
2019-04-30T02:17:42.206Z,4.10
2019-04-30T02:18:42.174Z,4.10
2019-04-30T02:19:53.915Z,4.40
2019-04-30T02:20:42.193Z,4.30
2019-04-30T02:21:42.148Z,3.70
2019-04-30T02:22:42.156Z,3.80
2019-04-30T02:23:42.166Z,4.10
2019-04-30T02:24:42.167Z,4.00
2019-04-30T02:25:42.219Z,3.80
2019-04-30T02:26:42.199Z,3.90
2019-04-30T02:27:42.182Z,4.00
2019-04-30T02:28:42.164Z,4.20
2019-04-30T02:29:42.206Z,3.80
2019-04-30T02:30:42.183Z,4.40
2019-04-30T02:31:42.203Z,4.20
2019-04-30T02:32:42.210Z,4.30
2019-04-30T02:33:42.198Z,4.10
2019-04-30T02:34:44.211Z,4.00
2019-04-30T02:35:42.208Z,4.00
2019-04-30T02:36:42.251Z,3.90
2019-04-30T02:37:43.531Z,4.30
2019-04-30T02:38:42.209Z,4.20
2019-04-30T02:39:42.263Z,4.00
2019-04-30T02:40:42.512Z,3.80
2019-04-30T02:41:42.277Z,4.00
2019-04-30T02:42:42.237Z,4.20
2019-04-30T02:43:42.245Z,4.00
2019-04-30T02:44:42.247Z,4.20
2019-04-30T02:45:42.296Z,3.90
2019-04-30T02:46:42.265Z,4.30
2019-04-30T02:47:42.294Z,3.90
2019-04-30T02:48:42.243Z,3.90
2019-04-30T02:49:42.254Z,3.90
2019-04-30T02:50:42.268Z,4.10
2019-04-30T02:51:42.246Z,4.10
2019-04-30T02:52:42.254Z,4.20
2019-04-30T02:53:42.329Z,3.80
2019-04-30T02:54:42.290Z,4.10
2019-04-30T02:55:42.279Z,4.40
2019-04-30T02:56:42.283Z,3.90
2019-04-30T02:57:42.304Z,4.20
2019-04-30T02:58:42.300Z,4.20
2019-04-30T02:59:42.362Z,3.90
2019-04-30T03:00:42.299Z,4.10
2019-04-30T03:01:42.288Z,3.80
2019-04-30T03:02:42.290Z,4.10
2019-04-30T03:03:42.643Z,3.90
2019-04-30T03:04:42.353Z,3.80
2019-04-30T03:05:42.339Z,4.10
2019-04-30T03:06:42.322Z,4.20
2019-04-30T03:07:42.325Z,4.00
2019-04-30T03:08:42.327Z,4.50
2019-04-30T03:09:42.318Z,3.70
2019-04-30T03:10:42.365Z,3.80
2019-04-30T03:11:42.372Z,4.10
2019-04-30T03:12:42.349Z,4.10
2019-04-30T03:13:42.798Z,4.00
2019-04-30T03:14:42.347Z,4.20
2019-04-30T03:15:42.372Z,4.20
2019-04-30T03:16:42.361Z,4.10
2019-04-30T03:17:42.365Z,3.80
2019-04-30T03:18:42.390Z,4.10
2019-04-30T03:19:42.362Z,4.10
2019-04-30T03:20:42.369Z,3.90
2019-04-30T03:21:42.397Z,3.90
2019-04-30T03:22:42.361Z,3.80
2019-04-30T03:23:42.366Z,4.10
2019-04-30T03:24:42.929Z,4.00
2019-04-30T03:25:42.400Z,4.30
2019-04-30T03:26:42.410Z,4.00
2019-04-30T03:27:42.659Z,4.10
2019-04-30T03:28:42.413Z,4.10
2019-04-30T03:29:42.424Z,4.00
2019-04-30T03:30:42.749Z,3.70
2019-04-30T03:31:45.000Z,4.00
2019-04-30T03:32:43.463Z,4.00
2019-04-30T03:33:42.830Z,4.10
2019-04-30T03:34:42.878Z,4.30
2019-04-30T03:35:47.849Z,4.30
2019-04-30T03:36:42.443Z,4.10
2019-04-30T03:37:42.448Z,4.10
2019-04-30T03:38:42.812Z,4.30
2019-04-30T03:39:42.465Z,4.30
2019-04-30T03:40:42.438Z,4.30
2019-04-30T03:41:42.444Z,4.20
2019-04-30T03:42:42.483Z,4.20
2019-04-30T03:43:42.450Z,4.10
2019-04-30T03:44:42.477Z,4.20
2019-04-30T03:45:42.469Z,3.90
2019-04-30T03:46:42.480Z,4.20
2019-04-30T03:47:43.216Z,4.00
2019-04-30T03:48:42.479Z,4.00
2019-04-30T03:49:42.478Z,4.10
2019-04-30T03:50:53.436Z,4.10
2019-04-30T03:51:42.495Z,3.90
2019-04-30T03:52:42.506Z,4.40
2019-04-30T03:53:42.796Z,3.80
2019-04-30T03:54:42.528Z,4.10
2019-04-30T03:55:42.497Z,4.10
2019-04-30T03:56:42.507Z,4.70
2019-04-30T03:57:42.540Z,3.90
2019-04-30T03:58:42.535Z,4.20
2019-04-30T03:59:42.520Z,4.00
2019-04-30T04:00:42.656Z,4.00
2019-04-30T04:01:42.533Z,4.20
2019-04-30T04:02:42.517Z,4.30
2019-04-30T04:03:42.546Z,3.90
2019-04-30T04:04:42.607Z,4.20
2019-04-30T04:05:42.540Z,4.20
2019-04-30T04:06:42.568Z,3.90
2019-04-30T04:07:43.505Z,3.80
2019-04-30T04:08:43.466Z,3.90
2019-04-30T04:09:42.546Z,4.10
2019-04-30T04:10:42.572Z,3.90
2019-04-30T04:11:42.586Z,3.80
2019-04-30T04:12:42.597Z,3.80
2019-04-30T04:13:42.588Z,3.70
2019-04-30T04:14:42.579Z,3.70
2019-04-30T04:15:42.615Z,4.00
2019-04-30T04:16:42.589Z,3.90
2019-04-30T04:17:42.630Z,3.60
2019-04-30T04:18:42.605Z,3.70
2019-04-30T04:19:42.590Z,4.10
2019-04-30T04:20:42.825Z,4.00
2019-04-30T04:21:42.582Z,3.80
2019-04-30T04:22:42.660Z,3.90
2019-04-30T04:23:42.614Z,3.90
2019-04-30T04:24:42.616Z,4.10
2019-04-30T04:25:42.636Z,3.70
2019-04-30T04:26:43.806Z,3.60
2019-04-30T04:27:42.633Z,3.80
2019-04-30T04:28:43.614Z,3.70
2019-04-30T04:29:42.643Z,4.00
2019-04-30T04:30:42.995Z,3.90
2019-04-30T04:31:42.635Z,3.90
2019-04-30T04:32:42.647Z,4.00
2019-04-30T04:33:42.679Z,3.70
2019-04-30T04:34:44.985Z,4.10
2019-04-30T04:35:42.640Z,3.90
2019-04-30T04:36:43.341Z,3.70
2019-04-30T04:37:42.696Z,3.90
2019-04-30T04:38:42.712Z,3.80
2019-04-30T04:39:42.676Z,3.60
2019-04-30T04:40:42.674Z,3.80
2019-04-30T04:41:44.248Z,3.90
2019-04-30T04:42:42.696Z,4.10
2019-04-30T04:43:42.693Z,3.80
2019-04-30T04:44:42.698Z,4.00
2019-04-30T04:45:43.745Z,4.00
2019-04-30T04:46:42.714Z,4.10
2019-04-30T04:47:42.727Z,3.90
2019-04-30T04:48:42.716Z,3.70
2019-04-30T04:49:42.733Z,3.70
2019-04-30T04:50:42.790Z,3.90
2019-04-30T04:51:42.754Z,3.30
2019-04-30T04:52:42.762Z,3.70
2019-04-30T04:53:42.760Z,3.80
2019-04-30T04:54:42.788Z,3.70
2019-04-30T04:55:42.753Z,3.60
2019-04-30T04:56:42.781Z,3.50
2019-04-30T04:57:42.840Z,3.70
2019-04-30T04:58:42.752Z,3.60
2019-04-30T04:59:42.752Z,3.60
2019-04-30T05:00:42.807Z,3.60
2019-04-30T05:01:42.775Z,3.40
2019-04-30T05:02:42.838Z,3.30
2019-04-30T05:03:42.790Z,3.40
2019-04-30T05:04:42.806Z,3.50
2019-04-30T05:05:42.839Z,3.50
2019-04-30T05:06:42.830Z,3.80
2019-04-30T05:07:42.816Z,4.00
2019-04-30T05:08:42.810Z,3.60
2019-04-30T05:09:42.808Z,3.60
2019-04-30T05:10:42.830Z,3.50
2019-04-30T05:11:42.837Z,3.30
2019-04-30T05:12:42.843Z,3.70
2019-04-30T05:13:42.900Z,3.40
2019-04-30T05:14:42.844Z,3.50
2019-04-30T05:15:42.899Z,3.80
2019-04-30T05:16:42.856Z,3.60
2019-04-30T05:17:42.882Z,3.50
2019-04-30T05:18:42.977Z,3.40
2019-04-30T05:19:42.870Z,3.30
2019-04-30T05:20:42.895Z,3.70
2019-04-30T05:21:44.892Z,3.50
2019-04-30T05:22:42.902Z,3.60
2019-04-30T05:23:42.909Z,3.80
2019-04-30T05:24:42.914Z,3.20
2019-04-30T05:25:42.951Z,3.50
2019-04-30T05:26:42.980Z,3.40
2019-04-30T05:27:42.928Z,3.40
2019-04-30T05:28:42.940Z,3.30
2019-04-30T05:29:43.096Z,3.50
2019-04-30T05:30:43.123Z,3.30
2019-04-30T05:31:43.210Z,3.50
2019-04-30T05:32:43.071Z,3.60
2019-04-30T05:33:44.360Z,3.40
2019-04-30T05:34:43.078Z,3.70
2019-04-30T05:35:43.134Z,3.50
2019-04-30T05:36:43.138Z,3.60
2019-04-30T05:37:43.249Z,3.50
2019-04-30T05:38:43.155Z,3.50
2019-04-30T05:39:43.156Z,3.40
2019-04-30T05:40:43.092Z,3.40
2019-04-30T05:41:43.239Z,3.70
2019-04-30T05:42:43.166Z,3.60
2019-04-30T05:43:43.085Z,3.40
2019-04-30T05:44:43.178Z,3.30
2019-04-30T05:45:43.302Z,3.50
2019-04-30T05:46:43.232Z,3.40
2019-04-30T05:47:43.305Z,3.40
2019-04-30T05:48:43.208Z,3.60
2019-04-30T05:49:43.211Z,3.40
2019-04-30T05:50:43.178Z,3.20
2019-04-30T05:51:52.877Z,3.20
2019-04-30T05:52:43.334Z,3.40
2019-04-30T05:53:43.374Z,3.20
2019-04-30T05:54:43.394Z,3.30
2019-04-30T05:55:43.174Z,3.60
2019-04-30T05:56:43.190Z,3.40
2019-04-30T05:57:53.149Z,3.40
2019-04-30T05:58:43.192Z,3.40
2019-04-30T05:59:43.197Z,3.20
2019-04-30T06:00:43.187Z,3.30
2019-04-30T06:01:48.000Z,3.50
2019-04-30T06:02:43.217Z,3.40
2019-04-30T06:03:43.211Z,3.70
2019-04-30T06:04:43.324Z,3.60
2019-04-30T06:05:43.239Z,3.20
2019-04-30T06:06:43.313Z,3.50
2019-04-30T06:07:43.249Z,3.20
2019-04-30T06:08:43.299Z,3.40
2019-04-30T06:09:43.306Z,3.80
2019-04-30T06:10:43.281Z,3.30
2019-04-30T06:11:43.320Z,3.40
2019-04-30T06:12:43.332Z,3.40
2019-04-30T06:13:43.332Z,3.20
2019-04-30T06:14:48.883Z,3.00
2019-04-30T06:15:43.357Z,3.20
2019-04-30T06:16:43.381Z,3.40
2019-04-30T06:17:43.361Z,3.20
2019-04-30T06:18:43.388Z,2.90
2019-04-30T06:19:43.396Z,3.10
2019-04-30T06:20:43.449Z,3.00
2019-04-30T06:21:43.407Z,2.90
2019-04-30T06:22:43.419Z,3.30
2019-04-30T06:23:43.415Z,2.90
2019-04-30T06:24:43.427Z,3.10
2019-04-30T06:25:56.411Z,3.20
2019-04-30T06:26:43.438Z,3.20
2019-04-30T06:27:43.461Z,3.10
2019-04-30T06:28:43.825Z,3.00
2019-04-30T06:29:43.591Z,3.30
2019-04-30T06:30:43.502Z,2.90
2019-04-30T06:31:43.614Z,2.90
2019-04-30T06:32:43.522Z,3.10
2019-04-30T06:33:43.484Z,2.90
2019-04-30T06:34:43.590Z,2.90
2019-04-30T06:35:43.581Z,2.80
2019-04-30T06:36:51.019Z,2.90
2019-04-30T06:37:43.555Z,3.00
2019-04-30T06:38:43.584Z,2.90
2019-04-30T06:39:43.555Z,3.00
2019-04-30T06:40:44.510Z,2.80
2019-04-30T06:41:43.591Z,3.10
2019-04-30T06:42:43.586Z,3.30
2019-04-30T06:43:43.601Z,2.90
2019-04-30T06:44:43.608Z,3.00
2019-04-30T06:45:43.671Z,3.20
2019-04-30T06:46:43.619Z,3.10
2019-04-30T06:47:43.626Z,2.80
2019-04-30T06:48:46.425Z,3.20
2019-04-30T06:49:43.688Z,2.90
2019-04-30T06:50:43.680Z,3.00
2019-04-30T06:51:43.690Z,3.00
2019-04-30T06:52:54.158Z,2.90
2019-04-30T06:53:43.707Z,2.70
2019-04-30T06:54:43.673Z,3.00
2019-04-30T06:55:43.735Z,2.90
2019-04-30T06:56:43.725Z,3.10
2019-04-30T06:57:43.730Z,2.90
2019-04-30T06:58:43.755Z,2.90
2019-04-30T06:59:43.758Z,3.00
2019-04-30T07:00:44.061Z,3.10
2019-04-30T07:01:43.772Z,3.00
2019-04-30T07:02:43.773Z,3.10
2019-04-30T07:03:43.815Z,2.90
2019-04-30T07:04:43.790Z,3.00
2019-04-30T07:05:43.792Z,2.90
2019-04-30T07:06:45.228Z,3.20
2019-04-30T07:07:43.798Z,2.80
2019-04-30T07:08:51.923Z,2.80
2019-04-30T07:09:53.094Z,3.00
2019-04-30T07:10:53.140Z,3.00
2019-04-30T07:11:43.932Z,3.00
2019-04-30T07:12:43.851Z,3.00
2019-04-30T07:13:43.837Z,2.80
2019-04-30T07:14:43.815Z,2.80
2019-04-30T07:15:43.859Z,2.90
2019-04-30T07:16:44.112Z,2.90
2019-04-30T07:17:43.878Z,2.80
2019-04-30T07:18:43.892Z,2.60
2019-04-30T07:19:55.684Z,2.80
2019-04-30T07:20:43.906Z,3.10
2019-04-30T07:21:45.304Z,2.90
2019-04-30T07:22:49.598Z,2.90
2019-04-30T07:23:43.913Z,2.80
2019-04-30T07:24:43.924Z,3.30
2019-04-30T07:25:43.929Z,3.10
2019-04-30T07:26:43.939Z,2.60
2019-04-30T07:27:43.945Z,2.70
2019-04-30T07:28:49.596Z,2.80
2019-04-30T07:29:43.970Z,2.90
2019-04-30T07:30:44.002Z,3.00
2019-04-30T07:31:44.000Z,2.80
2019-04-30T07:32:43.966Z,2.80
2019-04-30T07:33:43.984Z,3.00
2019-04-30T07:34:43.999Z,2.90
2019-04-30T07:35:43.992Z,3.20
2019-04-30T07:36:49.115Z,3.00
2019-04-30T07:37:45.877Z,3.10
2019-04-30T07:38:51.865Z,3.10
2019-04-30T07:39:44.037Z,2.90
2019-04-30T07:40:43.988Z,2.90
2019-04-30T07:41:43.989Z,2.80
2019-04-30T07:42:44.983Z,2.80
2019-04-30T07:43:44.085Z,3.00
2019-04-30T07:44:44.014Z,2.90
2019-04-30T07:45:44.018Z,2.90
2019-04-30T07:46:45.449Z,2.70
2019-04-30T07:47:44.036Z,2.90
2019-04-30T07:48:44.041Z,3.00
2019-04-30T07:49:51.784Z,2.90
2019-04-30T07:50:44.409Z,2.90
2019-04-30T07:51:44.406Z,2.80
2019-04-30T07:52:58.911Z,3.00
2019-04-30T07:53:44.066Z,2.70
2019-04-30T07:54:44.078Z,3.20
2019-04-30T07:55:44.082Z,2.80
2019-04-30T07:56:44.108Z,2.70
2019-04-30T07:57:44.090Z,3.00
2019-04-30T07:58:44.090Z,3.40
2019-04-30T07:59:44.160Z,2.90
2019-04-30T08:00:44.217Z,2.90
2019-04-30T08:02:03.268Z,2.60
2019-04-30T08:02:44.122Z,2.90
2019-04-30T08:03:44.387Z,2.90
2019-04-30T08:04:44.132Z,2.90
2019-04-30T08:05:44.186Z,3.00
2019-04-30T08:06:44.189Z,3.20
2019-04-30T08:07:44.306Z,2.90
2019-04-30T08:08:44.231Z,3.00
2019-04-30T08:09:44.167Z,2.80
2019-04-30T08:10:44.192Z,2.90
2019-04-30T08:11:44.189Z,2.80
2019-04-30T08:12:44.852Z,2.90
2019-04-30T08:13:44.634Z,2.80
2019-04-30T08:14:44.248Z,3.10
2019-04-30T08:15:44.401Z,2.80
2019-04-30T08:16:44.218Z,2.80
2019-04-30T08:17:44.228Z,2.60
2019-04-30T08:18:44.231Z,2.90
2019-04-30T08:19:44.245Z,3.00
2019-04-30T08:20:44.247Z,2.70
2019-04-30T08:21:44.261Z,2.50
2019-04-30T08:22:44.259Z,2.70
2019-04-30T08:23:44.263Z,3.00
2019-04-30T08:24:44.269Z,2.60
2019-04-30T08:25:44.320Z,2.70
2019-04-30T08:26:44.284Z,2.70
2019-04-30T08:27:44.284Z,2.60
2019-04-30T08:28:44.345Z,2.70
2019-04-30T08:29:44.306Z,2.40
2019-04-30T08:30:44.278Z,2.80
2019-04-30T08:31:44.448Z,2.60
2019-04-30T08:32:44.340Z,2.90
2019-04-30T08:33:44.329Z,2.80
2019-04-30T08:34:44.339Z,2.60
2019-04-30T08:35:44.347Z,2.70
2019-04-30T08:36:44.337Z,2.90
2019-04-30T08:37:44.358Z,2.70
2019-04-30T08:38:44.371Z,2.60
2019-04-30T08:39:44.354Z,2.50
2019-04-30T08:40:55.600Z,2.50
2019-04-30T08:41:44.446Z,2.30
2019-04-30T08:42:44.444Z,2.30
2019-04-30T08:43:44.398Z,2.40
2019-04-30T08:44:44.465Z,2.30
2019-04-30T08:45:44.407Z,2.30
2019-04-30T08:46:44.435Z,2.30
2019-04-30T08:47:44.420Z,2.30
2019-04-30T08:48:50.793Z,2.10
2019-04-30T08:49:44.595Z,2.20
2019-04-30T08:50:44.481Z,2.20
2019-04-30T08:51:44.570Z,2.20
2019-04-30T08:52:44.456Z,2.00
2019-04-30T08:53:44.465Z,2.20
2019-04-30T08:54:44.458Z,2.20
2019-04-30T08:55:44.513Z,2.10
2019-04-30T08:56:44.446Z,2.10
2019-04-30T08:57:44.447Z,2.10
2019-04-30T08:58:44.469Z,2.10
2019-04-30T08:59:44.506Z,2.10
2019-04-30T09:00:44.460Z,2.00
2019-04-30T09:01:44.515Z,2.20
2019-04-30T09:02:44.483Z,2.10
2019-04-30T09:03:44.481Z,2.30
2019-04-30T09:04:44.513Z,2.20
2019-04-30T09:05:44.500Z,2.10
2019-04-30T09:06:44.550Z,2.40
2019-04-30T09:07:44.507Z,2.30
2019-04-30T09:08:44.563Z,2.10
2019-04-30T09:09:44.761Z,2.10
2019-04-30T09:10:44.557Z,2.10
2019-04-30T09:11:53.968Z,2.10
2019-04-30T09:12:44.567Z,2.30
2019-04-30T09:13:44.556Z,2.20
2019-04-30T09:14:44.555Z,2.20
2019-04-30T09:15:44.576Z,2.10
2019-04-30T09:16:44.695Z,2.20
2019-04-30T09:17:58.203Z,2.10
2019-04-30T09:18:44.689Z,2.00
2019-04-30T09:19:44.618Z,2.10
2019-04-30T09:20:44.598Z,2.00
2019-04-30T09:21:44.610Z,2.30
2019-04-30T09:22:44.646Z,2.00
2019-04-30T09:23:49.926Z,2.00
2019-04-30T09:24:44.622Z,2.10
2019-04-30T09:25:44.667Z,2.10
2019-04-30T09:26:44.666Z,2.30
2019-04-30T09:27:44.694Z,2.10
2019-04-30T09:28:44.649Z,2.20
2019-04-30T09:29:44.724Z,2.10
2019-04-30T09:30:44.661Z,2.10
2019-04-30T09:31:44.705Z,2.00
2019-04-30T09:32:44.728Z,2.20
2019-04-30T09:33:44.748Z,2.20
2019-04-30T09:34:44.746Z,2.20
2019-04-30T09:35:44.704Z,2.00
2019-04-30T09:36:44.742Z,2.10
2019-04-30T09:37:44.707Z,2.30
2019-04-30T09:38:44.751Z,2.20
2019-04-30T09:39:44.766Z,2.20
2019-04-30T09:40:44.725Z,1.90
2019-04-30T09:41:44.743Z,2.10
2019-04-30T09:42:44.743Z,2.20
2019-04-30T09:43:44.803Z,2.20
2019-04-30T09:44:44.753Z,2.30
2019-04-30T09:45:44.765Z,2.10
2019-04-30T09:46:44.770Z,2.00
2019-04-30T09:47:44.837Z,2.20
2019-04-30T09:48:44.832Z,1.90
2019-04-30T09:49:44.787Z,2.40
2019-04-30T09:50:45.048Z,2.40
2019-04-30T09:51:44.804Z,2.30
2019-04-30T09:52:45.081Z,2.20
2019-04-30T09:53:55.626Z,2.20
2019-04-30T09:54:44.830Z,2.00
2019-04-30T09:55:44.828Z,2.30
2019-04-30T09:56:45.048Z,2.30
2019-04-30T09:57:44.850Z,2.30
2019-04-30T09:58:44.850Z,2.10
2019-04-30T09:59:44.858Z,2.30
2019-04-30T10:00:44.872Z,2.30
2019-04-30T10:01:44.885Z,2.10
2019-04-30T10:02:44.933Z,2.20
2019-04-30T10:03:45.224Z,2.10
2019-04-30T10:04:45.170Z,2.30
2019-04-30T10:05:44.910Z,2.10
2019-04-30T10:06:44.906Z,2.20
2019-04-30T10:07:44.904Z,2.30
2019-04-30T10:08:48.385Z,2.80
2019-04-30T10:09:44.931Z,2.20
2019-04-30T10:10:44.975Z,2.10
2019-04-30T10:11:44.944Z,2.30
2019-04-30T10:12:44.943Z,2.20
2019-04-30T10:13:44.958Z,2.00
2019-04-30T10:14:44.963Z,2.20
2019-04-30T10:15:45.019Z,2.20
2019-04-30T10:16:45.108Z,2.50
2019-04-30T10:17:45.033Z,2.30
2019-04-30T10:18:45.014Z,2.30
2019-04-30T10:19:45.019Z,2.40
2019-04-30T10:20:45.007Z,2.60
2019-04-30T10:21:45.066Z,2.30
2019-04-30T10:22:45.019Z,2.40
2019-04-30T10:23:45.019Z,2.20
2019-04-30T10:24:45.033Z,2.50
2019-04-30T10:25:45.024Z,2.00
2019-04-30T10:26:45.086Z,2.50
2019-04-30T10:27:45.053Z,2.40
2019-04-30T10:28:45.091Z,2.30
2019-04-30T10:29:45.065Z,2.30
2019-04-30T10:30:45.062Z,2.40
2019-04-30T10:31:45.178Z,2.30
2019-04-30T10:32:45.079Z,2.60
2019-04-30T10:33:45.091Z,2.20
2019-04-30T10:34:45.095Z,2.30
2019-04-30T10:35:45.105Z,2.20
2019-04-30T10:36:45.118Z,2.30
2019-04-30T10:37:45.174Z,2.30
2019-04-30T10:38:45.154Z,2.30
2019-04-30T10:39:45.150Z,2.20
2019-04-30T10:40:45.160Z,2.50
2019-04-30T10:41:45.149Z,2.50
2019-04-30T10:42:45.174Z,2.50
2019-04-30T10:43:45.159Z,2.40
2019-04-30T10:44:45.274Z,2.30
2019-04-30T10:45:45.172Z,2.20
2019-04-30T10:46:45.200Z,2.20
2019-04-30T10:47:45.249Z,3.10
2019-04-30T10:48:45.197Z,2.40
2019-04-30T10:49:45.236Z,2.30
2019-04-30T10:50:45.222Z,2.50
2019-04-30T10:51:45.258Z,2.20
2019-04-30T10:52:45.243Z,2.50
2019-04-30T10:53:45.262Z,3.00
2019-04-30T10:54:45.258Z,2.60
2019-04-30T10:55:45.260Z,2.60
2019-04-30T10:56:45.249Z,2.50
2019-04-30T10:57:45.300Z,2.40
2019-04-30T10:58:45.274Z,2.60
2019-04-30T10:59:45.286Z,2.60
2019-04-30T11:00:45.325Z,2.30
2019-04-30T11:01:45.310Z,2.60
2019-04-30T11:02:45.316Z,2.40
2019-04-30T11:03:45.367Z,2.50
2019-04-30T11:04:45.321Z,2.40
2019-04-30T11:05:45.325Z,2.50
2019-04-30T11:06:45.329Z,2.50
2019-04-30T11:07:45.388Z,2.70
2019-04-30T11:08:45.348Z,2.50
2019-04-30T11:09:45.409Z,2.70
2019-04-30T11:10:45.358Z,2.60
2019-04-30T11:11:45.365Z,2.50
2019-04-30T11:12:45.379Z,2.20
2019-04-30T11:13:45.428Z,2.60
2019-04-30T11:14:45.486Z,2.40
2019-04-30T11:15:45.402Z,2.40
2019-04-30T11:16:45.511Z,2.40
2019-04-30T11:17:45.557Z,2.40
2019-04-30T11:18:45.567Z,2.60
2019-04-30T11:19:45.594Z,2.40
2019-04-30T11:20:45.673Z,2.50
2019-04-30T11:21:45.635Z,2.60
2019-04-30T11:22:45.617Z,2.60
2019-04-30T11:23:45.555Z,3.80
2019-04-30T11:24:56.708Z,2.50
2019-04-30T11:25:46.352Z,3.10
2019-04-30T11:26:46.178Z,2.50
2019-04-30T11:27:45.877Z,3.10
2019-04-30T11:28:45.650Z,2.80
2019-04-30T11:29:45.617Z,2.90
2019-04-30T11:30:45.683Z,3.00
2019-04-30T11:31:45.676Z,3.40
2019-04-30T11:32:45.641Z,2.70
2019-04-30T11:33:45.756Z,2.50
2019-04-30T11:34:45.526Z,2.70
2019-04-30T11:35:45.524Z,2.70
2019-04-30T11:36:45.577Z,3.10
2019-04-30T11:37:45.601Z,2.60
2019-04-30T11:38:45.606Z,2.70
2019-04-30T11:39:45.608Z,2.50
2019-04-30T11:40:45.582Z,2.50
2019-04-30T11:41:45.577Z,2.60
2019-04-30T11:42:45.589Z,2.90
2019-04-30T11:43:45.644Z,2.60
2019-04-30T11:44:45.635Z,2.70
2019-04-30T11:45:45.603Z,3.40
2019-04-30T11:46:45.705Z,3.00
2019-04-30T11:47:53.250Z,2.50
2019-04-30T11:48:45.637Z,2.70
2019-04-30T11:49:45.641Z,2.50
2019-04-30T11:50:45.694Z,2.70
2019-04-30T11:51:45.743Z,2.90
2019-04-30T11:52:45.683Z,2.50
2019-04-30T11:53:45.697Z,2.80
2019-04-30T11:54:51.657Z,2.70
2019-04-30T11:55:45.709Z,2.90
2019-04-30T11:56:45.715Z,2.90
2019-04-30T11:57:45.740Z,2.50
2019-04-30T11:58:45.738Z,3.00
2019-04-30T11:59:45.740Z,2.90
2019-04-30T12:00:45.782Z,2.50
2019-04-30T12:01:45.742Z,2.60
2019-04-30T12:02:45.756Z,2.50
2019-04-30T12:03:45.763Z,2.60
2019-04-30T12:04:45.784Z,3.10
2019-04-30T12:05:45.819Z,3.40
2019-04-30T12:06:45.764Z,5.70
2019-04-30T12:07:45.803Z,2.50
2019-04-30T12:08:45.813Z,3.00
2019-04-30T12:09:45.801Z,2.80
2019-04-30T12:10:45.804Z,3.20
2019-04-30T12:11:45.830Z,2.80
2019-04-30T12:12:45.896Z,2.60
2019-04-30T12:13:45.844Z,2.80
2019-04-30T12:14:45.847Z,2.60
2019-04-30T12:15:45.859Z,2.60
2019-04-30T12:16:45.846Z,2.40
2019-04-30T12:17:45.854Z,2.60
2019-04-30T12:18:45.921Z,2.60
2019-04-30T12:19:45.888Z,3.30
2019-04-30T12:20:45.891Z,2.70
2019-04-30T12:21:45.893Z,2.40
2019-04-30T12:22:45.940Z,2.60
2019-04-30T12:23:45.955Z,3.30
2019-04-30T12:24:45.921Z,3.30
2019-04-30T12:25:46.529Z,3.50
2019-04-30T12:26:45.931Z,2.70
2019-04-30T12:27:45.944Z,2.60
2019-04-30T12:28:45.994Z,2.80
2019-04-30T12:29:46.007Z,2.50
2019-04-30T12:30:45.961Z,2.70
2019-04-30T12:31:45.969Z,2.60
2019-04-30T12:32:45.967Z,2.40
2019-04-30T12:33:46.015Z,2.30
2019-04-30T12:34:46.021Z,2.40
2019-04-30T12:35:46.003Z,2.50
2019-04-30T12:36:45.998Z,2.60
2019-04-30T12:37:46.009Z,2.80
2019-04-30T12:38:46.057Z,2.80
2019-04-30T12:39:46.017Z,3.00
2019-04-30T12:40:46.060Z,2.60
2019-04-30T12:41:46.068Z,3.20
2019-04-30T12:42:46.072Z,2.50
2019-04-30T12:43:46.045Z,2.70
2019-04-30T12:44:46.083Z,2.50
2019-04-30T12:45:46.102Z,2.90
2019-04-30T12:46:46.104Z,2.50
2019-04-30T12:47:46.123Z,2.70
2019-04-30T12:48:46.168Z,2.80
2019-04-30T12:49:46.133Z,2.60
2019-04-30T12:50:46.139Z,2.60
2019-04-30T12:51:46.378Z,2.50
2019-04-30T12:52:46.137Z,2.80
2019-04-30T12:53:46.151Z,2.70
2019-04-30T12:54:46.161Z,3.50
2019-04-30T12:55:46.349Z,3.10
2019-04-30T12:56:46.191Z,3.10
2019-04-30T12:57:56.181Z,2.70
2019-04-30T12:58:46.200Z,2.80
2019-04-30T12:59:46.234Z,2.90
2019-04-30T13:00:46.270Z,2.90
2019-04-30T13:01:46.224Z,2.90
2019-04-30T13:02:46.214Z,2.70
2019-04-30T13:03:55.948Z,4.40
2019-04-30T13:04:46.243Z,2.50
2019-04-30T13:05:46.496Z,2.50
2019-04-30T13:06:48.473Z,2.80
2019-04-30T13:07:46.719Z,2.30
2019-04-30T13:08:46.737Z,2.50
2019-04-30T13:09:46.603Z,2.50
2019-04-30T13:10:46.789Z,2.50
2019-04-30T13:11:46.852Z,2.70
2019-04-30T13:12:46.768Z,2.30
2019-04-30T13:13:46.810Z,2.40
2019-04-30T13:14:51.662Z,2.30
2019-04-30T13:15:46.356Z,2.80
2019-04-30T13:16:46.373Z,2.50
2019-04-30T13:17:46.366Z,2.70
2019-04-30T13:18:46.371Z,2.80